createdAt,value
2023-02-27T00:00:16.621Z,18.77
2023-02-27T00:02:48.520Z,18.08
2023-02-27T00:05:16.181Z,14.88
2023-02-27T00:07:43.013Z,17.27
2023-02-27T00:10:12.984Z,13.38
2023-02-27T00:12:40.430Z,14.43
2023-02-27T00:15:14.268Z,12.77
2023-02-27T00:17:41.740Z,15.55
2023-02-27T00:20:12.890Z,12.77
2023-02-27T00:22:41.070Z,14.50
2023-02-27T00:25:09.231Z,10.10
2023-02-27T00:27:37.175Z,11.80
2023-02-27T00:30:08.986Z,13.13
2023-02-27T00:32:36.948Z,9.73
2023-02-27T00:35:09.006Z,10.25
2023-02-27T00:37:36.709Z,10.77
2023-02-27T00:40:05.515Z,10.27
2023-02-27T00:42:32.662Z,10.73
2023-02-27T00:44:59.645Z,9.32
2023-02-27T00:47:26.708Z,9.40
2023-02-27T00:49:53.678Z,11.85
2023-02-27T00:52:20.612Z,12.38
2023-02-27T00:54:47.493Z,11.20
2023-02-27T00:57:14.452Z,10.68
2023-02-27T00:59:41.552Z,9.85
2023-02-27T01:02:08.654Z,9.55
2023-02-27T01:04:36.027Z,10.00
2023-02-27T01:07:03.127Z,8.93
2023-02-27T01:09:30.228Z,12.77
2023-02-27T01:11:57.774Z,11.73
2023-02-27T01:14:24.675Z,9.55
2023-02-27T01:16:53.922Z,11.05
2023-02-27T01:19:20.854Z,11.50
2023-02-27T01:21:47.722Z,12.30
2023-02-27T01:24:14.521Z,12.50
2023-02-27T01:26:41.672Z,15.27
2023-02-27T01:29:08.653Z,24.90
2023-02-27T01:31:35.474Z,27.90
2023-02-27T01:34:02.548Z,47.53
2023-02-27T01:36:29.739Z,53.90
2023-02-27T01:38:58.009Z,42.67
2023-02-27T01:41:25.013Z,29.23
2023-02-27T01:43:59.605Z,25.10
2023-02-27T01:46:27.845Z,24.48
2023-02-27T01:48:59.775Z,27.20
2023-02-27T01:51:31.809Z,19.55
2023-02-27T01:53:59.321Z,11.18
2023-02-27T01:56:30.198Z,6.22
2023-02-27T01:59:02.082Z,10.32
2023-02-27T02:01:47.829Z,7.90
2023-02-27T02:04:28.333Z,7.82
2023-02-27T02:06:59.862Z,7.35
2023-02-27T02:09:29.057Z,7.80
2023-02-27T02:11:58.153Z,7.22
2023-02-27T02:14:25.074Z,5.35
2023-02-27T02:17:22.761Z,5.38
2023-02-27T02:20:46.557Z,6.88
2023-02-27T02:23:31.759Z,8.20
2023-02-27T02:26:25.027Z,11.65
2023-02-27T02:29:19.840Z,13.93
2023-02-27T02:32:28.305Z,17.65
2023-02-27T02:35:16.280Z,18.60
2023-02-27T02:38:17.157Z,22.20
2023-02-27T02:40:59.424Z,24.23
2023-02-27T02:43:43.849Z,24.38
2023-02-27T02:46:19.490Z,23.55
2023-02-27T02:48:53.401Z,23.77
2023-02-27T02:51:40.007Z,25.27
2023-02-27T02:54:39.033Z,25.52
2023-02-27T02:57:14.869Z,25.83
2023-02-27T03:00:00.219Z,25.17
2023-02-27T03:02:36.790Z,24.67
2023-02-27T03:07:42.680Z,26.38
2023-02-27T03:10:21.288Z,29.48
2023-02-27T03:13:02.227Z,30.48
2023-02-27T03:15:45.227Z,33.70
2023-02-27T03:18:24.838Z,40.15
2023-02-27T03:21:04.250Z,38.45
2023-02-27T03:23:44.206Z,40.78
2023-02-27T03:26:15.177Z,41.42
2023-02-27T03:28:54.147Z,41.60
2023-02-27T03:31:31.882Z,40.92
2023-02-27T03:34:20.487Z,40.50
2023-02-27T03:36:58.408Z,43.45
2023-02-27T03:39:45.604Z,42.45
2023-02-27T03:42:12.556Z,45.95
2023-02-27T03:44:52.515Z,42.53
2023-02-27T03:47:20.273Z,44.30
2023-02-27T03:49:47.410Z,48.80
2023-02-27T03:52:14.439Z,50.63
2023-02-27T03:54:49.978Z,46.80
2023-02-27T03:57:16.860Z,48.27
2023-02-27T03:59:43.845Z,50.38
2023-02-27T04:02:11.248Z,48.22
2023-02-27T04:04:38.913Z,47.00
2023-02-27T04:07:39.332Z,52.05
2023-02-27T04:10:36.474Z,50.45
2023-02-27T04:13:51.339Z,52.10
2023-02-27T04:16:48.115Z,43.10
2023-02-27T04:19:23.673Z,41.57
2023-02-27T04:22:14.345Z,42.50
2023-02-27T04:24:47.093Z,43.15
2023-02-27T04:27:35.315Z,44.55
2023-02-27T04:30:20.756Z,41.08
2023-02-27T04:33:08.128Z,46.53
2023-02-27T04:35:35.074Z,41.80
2023-02-27T04:38:35.175Z,43.15
2023-02-27T04:41:07.522Z,40.38
2023-02-27T04:43:37.532Z,42.30
2023-02-27T04:46:08.591Z,45.35
2023-02-27T04:48:48.323Z,40.10
2023-02-27T04:51:20.194Z,43.75
2023-02-27T04:53:52.745Z,44.50
2023-02-27T04:56:32.524Z,41.47
2023-02-27T04:59:05.478Z,46.00
2023-02-27T05:01:40.915Z,47.42
2023-02-27T05:04:12.612Z,53.38
2023-02-27T05:06:42.921Z,52.40
2023-02-27T05:09:27.123Z,52.05
2023-02-27T05:12:01.304Z,53.40
2023-02-27T05:14:28.065Z,48.47
2023-02-27T05:17:07.436Z,48.83
2023-02-27T05:19:37.324Z,51.22
2023-02-27T05:22:10.503Z,51.63
2023-02-27T05:24:54.434Z,47.35
2023-02-27T05:27:33.445Z,45.78
2023-02-27T05:30:08.837Z,47.55
2023-02-27T05:32:45.192Z,55.25
2023-02-27T05:35:32.984Z,48.10
2023-02-27T05:38:03.056Z,50.78
2023-02-27T05:40:37.342Z,51.38
2023-02-27T05:43:19.246Z,50.33
2023-02-27T05:45:50.321Z,53.08
2023-02-27T05:48:41.962Z,49.17
2023-02-27T05:51:11.474Z,50.55
2023-02-27T05:53:43.530Z,46.13
2023-02-27T05:56:14.669Z,49.83
2023-02-27T05:58:46.155Z,46.50
2023-02-27T06:01:13.017Z,53.25
2023-02-27T06:03:41.231Z,47.38
2023-02-27T06:06:12.787Z,52.28
2023-02-27T06:08:39.616Z,48.67
2023-02-27T06:11:06.590Z,46.85
2023-02-27T06:13:33.367Z,50.33
2023-02-27T06:16:00.255Z,49.88
2023-02-27T06:18:27.217Z,49.13
2023-02-27T06:20:54.466Z,50.15
2023-02-27T06:23:21.484Z,50.55
2023-02-27T06:25:49.055Z,49.17
2023-02-27T06:28:16.063Z,50.55
2023-02-27T06:30:44.654Z,50.22
2023-02-27T06:33:12.917Z,50.10
2023-02-27T06:35:40.404Z,47.03
2023-02-27T06:38:07.397Z,46.28
2023-02-27T06:40:34.335Z,47.67
2023-02-27T06:43:01.404Z,55.28
2023-02-27T06:45:28.256Z,50.83
2023-02-27T06:47:55.404Z,46.60
2023-02-27T06:50:22.312Z,46.97
2023-02-27T06:52:49.153Z,45.70
2023-02-27T06:55:20.542Z,47.08
2023-02-27T06:57:47.832Z,51.90
2023-02-27T07:00:15.768Z,51.10
2023-02-27T07:02:42.685Z,49.85
2023-02-27T07:05:12.181Z,46.22
2023-02-27T07:07:39.693Z,46.75
2023-02-27T07:10:11.410Z,46.13
2023-02-27T07:12:39.484Z,49.42
2023-02-27T07:15:07.017Z,55.00
2023-02-27T07:17:33.935Z,53.30
2023-02-27T07:20:01.163Z,46.38
2023-02-27T07:22:27.981Z,52.58
2023-02-27T07:24:55.260Z,43.13
2023-02-27T07:27:22.332Z,44.50
2023-02-27T07:29:49.312Z,43.58
2023-02-27T07:32:16.448Z,42.42
2023-02-27T07:34:43.428Z,44.88
2023-02-27T07:37:10.228Z,43.50
2023-02-27T07:39:37.301Z,45.67
2023-02-27T07:42:04.226Z,41.10
2023-02-27T07:44:31.287Z,43.50
2023-02-27T07:46:58.205Z,43.85
2023-02-27T07:49:25.423Z,44.30
2023-02-27T07:51:52.217Z,39.50
2023-02-27T07:54:19.502Z,41.28
2023-02-27T07:56:46.316Z,42.53
2023-02-27T07:59:13.172Z,44.13
2023-02-27T08:01:39.995Z,44.70
2023-02-27T08:04:06.821Z,45.40
2023-02-27T08:06:33.635Z,46.00
2023-02-27T08:09:00.676Z,50.10
2023-02-27T08:11:27.806Z,46.60
2023-02-27T08:14:02.569Z,45.38
2023-02-27T08:16:31.723Z,45.22
2023-02-27T08:18:59.344Z,47.58
2023-02-27T08:21:26.637Z,47.55
2023-02-27T08:23:54.678Z,48.03
2023-02-27T08:26:21.565Z,49.97
2023-02-27T08:28:48.502Z,51.53
2023-02-27T08:31:15.498Z,49.90
2023-02-27T08:33:42.511Z,53.92
2023-02-27T08:36:10.268Z,47.42
2023-02-27T08:38:37.267Z,50.75
2023-02-27T08:41:04.360Z,46.05
2023-02-27T08:43:31.228Z,51.53
2023-02-27T08:45:58.275Z,49.10
2023-02-27T08:48:25.451Z,55.25
2023-02-27T08:50:52.587Z,50.72
2023-02-27T08:53:19.836Z,52.10
2023-02-27T08:55:51.293Z,49.92
2023-02-27T08:58:19.039Z,54.55
2023-02-27T09:00:46.467Z,49.40
2023-02-27T09:03:13.823Z,51.90
2023-02-27T09:05:42.117Z,47.70
2023-02-27T09:08:09.316Z,44.53
2023-02-27T09:10:36.770Z,45.20
2023-02-27T09:13:03.624Z,41.65
2023-02-27T09:15:31.964Z,45.45
2023-02-27T09:18:03.228Z,45.20
2023-02-27T09:20:31.894Z,46.15
2023-02-27T09:23:00.034Z,43.20
2023-02-27T09:25:28.129Z,47.67
2023-02-27T09:27:55.338Z,47.75
2023-02-27T09:30:23.116Z,51.55
2023-02-27T09:32:50.220Z,50.22
2023-02-27T09:35:17.502Z,51.95
2023-02-27T09:37:44.459Z,56.17
2023-02-27T09:40:17.309Z,54.85
2023-02-27T09:42:48.808Z,58.35
2023-02-27T09:45:25.021Z,62.03
2023-02-27T09:47:56.475Z,58.97
2023-02-27T09:50:48.341Z,60.53
2023-02-27T09:53:39.922Z,65.95
2023-02-27T09:56:13.908Z,55.55
2023-02-27T09:59:04.946Z,68.90
2023-02-27T10:01:42.706Z,55.78
2023-02-27T10:04:30.728Z,53.25
2023-02-27T10:07:17.216Z,62.75
2023-02-27T10:09:58.182Z,55.70
2023-02-27T10:15:44.111Z,50.58
2023-02-27T10:21:14.144Z,85.53
2023-02-27T10:23:46.542Z,77.38
2023-02-27T10:26:23.179Z,81.43
2023-02-27T10:31:25.833Z,60.25
2023-02-27T10:33:54.817Z,57.88
2023-02-27T10:36:33.716Z,66.28
2023-02-27T10:39:09.275Z,64.18
2023-02-27T10:41:38.135Z,67.50
2023-02-27T10:44:05.309Z,64.50
2023-02-27T10:46:40.877Z,69.10
2023-02-27T10:49:19.077Z,91.83
2023-02-27T10:52:08.813Z,67.88
2023-02-27T10:54:36.066Z,68.05
2023-02-27T10:57:07.857Z,72.97
2023-02-27T10:59:41.104Z,76.88
2023-02-27T11:02:18.007Z,73.28
2023-02-27T11:04:54.517Z,71.40
2023-02-27T11:10:11.098Z,69.93
2023-02-27T11:12:39.135Z,75.53
2023-02-27T11:15:15.233Z,76.32
2023-02-27T11:17:43.577Z,73.93
2023-02-27T11:20:32.147Z,76.63
2023-02-27T11:23:14.148Z,83.53
2023-02-27T11:25:41.411Z,86.40
2023-02-27T11:28:30.257Z,81.05
2023-02-27T11:30:57.265Z,77.25
2023-02-27T11:33:25.447Z,76.05
2023-02-27T11:35:57.413Z,81.47
2023-02-27T11:38:30.550Z,79.72
2023-02-27T11:41:01.169Z,80.35
2023-02-27T11:43:51.075Z,76.47
2023-02-27T11:46:46.587Z,88.65
2023-02-27T11:49:21.825Z,83.25
2023-02-27T11:52:11.818Z,81.55
2023-02-27T11:54:47.953Z,87.80
2023-02-27T11:57:35.463Z,86.30
2023-02-27T12:00:16.640Z,98.45
2023-02-27T12:03:21.431Z,94.97
2023-02-27T12:05:54.902Z,93.25
2023-02-27T12:08:43.896Z,88.38
2023-02-27T12:11:30.153Z,101.22
2023-02-27T12:14:08.917Z,108.00
2023-02-27T12:16:57.108Z,103.15
2023-02-27T12:19:38.224Z,100.40
2023-02-27T12:22:17.440Z,89.10
2023-02-27T12:24:53.161Z,86.05
2023-02-27T12:27:26.141Z,83.93
2023-02-27T12:30:00.626Z,77.95
2023-02-27T12:32:47.116Z,74.65
2023-02-27T12:35:22.513Z,80.97
2023-02-27T12:37:59.888Z,84.60
2023-02-27T12:40:36.987Z,70.93
2023-02-27T12:43:11.090Z,77.40
2023-02-27T12:45:41.051Z,80.88
2023-02-27T12:48:37.661Z,62.55
2023-02-27T12:51:17.350Z,74.20
2023-02-27T12:53:59.345Z,72.70
2023-02-27T12:56:43.830Z,69.88
2023-02-27T12:59:24.894Z,59.25
2023-02-27T13:01:58.715Z,73.72
2023-02-27T13:04:42.783Z,71.90
2023-02-27T13:07:24.668Z,68.35
2023-02-27T13:10:11.680Z,67.93
2023-02-27T13:15:25.739Z,88.03
2023-02-27T13:18:06.364Z,84.90
2023-02-27T13:20:51.977Z,81.57
2023-02-27T13:23:48.683Z,86.72
2023-02-27T13:26:34.248Z,83.27
2023-02-27T13:29:01.811Z,92.70
2023-02-27T13:31:34.723Z,85.50
2023-02-27T13:34:20.637Z,77.88
2023-02-27T13:36:52.930Z,83.25
2023-02-27T13:39:53.359Z,84.53
2023-02-27T13:42:26.227Z,91.45
2023-02-27T13:45:04.898Z,70.38
2023-02-27T13:47:40.097Z,68.43
2023-02-27T13:50:33.179Z,64.38
2023-02-27T13:53:10.084Z,73.30
2023-02-27T13:55:37.192Z,71.70
2023-02-27T13:58:05.737Z,71.82
2023-02-27T14:00:35.658Z,65.55
2023-02-27T14:03:17.603Z,80.50
2023-02-27T14:05:47.415Z,81.53
2023-02-27T14:08:48.368Z,82.55
2023-02-27T14:11:23.798Z,67.13
2023-02-27T14:13:50.690Z,69.90
2023-02-27T14:16:40.028Z,58.50
2023-02-27T14:19:16.056Z,56.97
2023-02-27T14:21:56.605Z,52.92
2023-02-27T14:24:36.555Z,58.22
2023-02-27T14:27:05.779Z,58.80
2023-02-27T14:29:34.520Z,56.47
2023-02-27T14:32:07.117Z,59.33
2023-02-27T14:34:38.368Z,56.00
2023-02-27T14:37:10.504Z,54.40
2023-02-27T14:39:38.432Z,68.72
2023-02-27T14:42:30.800Z,68.57
2023-02-27T14:44:57.917Z,55.35
2023-02-27T14:47:33.502Z,56.45
2023-02-27T14:50:04.821Z,53.57
2023-02-27T14:52:41.451Z,58.83
2023-02-27T14:55:14.322Z,67.88
2023-02-27T14:57:41.630Z,54.30
2023-02-27T15:00:41.319Z,54.45
2023-02-27T15:03:25.395Z,50.35
2023-02-27T15:05:55.405Z,56.85
2023-02-27T15:08:36.970Z,59.63
2023-02-27T15:11:05.042Z,66.22
2023-02-27T15:13:36.242Z,65.85
2023-02-27T15:16:41.896Z,57.28
2023-02-27T15:19:20.422Z,60.72
2023-02-27T15:21:52.859Z,58.13
2023-02-27T15:24:48.843Z,64.63
2023-02-27T15:27:22.966Z,69.57
2023-02-27T15:30:01.140Z,59.60
2023-02-27T15:32:43.208Z,61.17
2023-02-27T15:35:30.797Z,65.43
2023-02-27T15:37:59.806Z,69.72
2023-02-27T15:40:29.137Z,60.50
2023-02-27T15:42:57.190Z,55.83
2023-02-27T15:45:36.248Z,53.60
2023-02-27T15:48:04.270Z,63.17
2023-02-27T15:50:38.184Z,70.70
2023-02-27T15:53:19.686Z,60.85
2023-02-27T15:55:51.257Z,64.32
2023-02-27T15:58:24.950Z,62.17
2023-02-27T16:01:00.912Z,56.53
2023-02-27T16:03:49.339Z,61.35
2023-02-27T16:06:18.487Z,64.22
2023-02-27T16:08:51.241Z,57.45
2023-02-27T16:11:20.080Z,61.40
2023-02-27T16:13:47.994Z,62.42
2023-02-27T16:16:20.850Z,59.85
2023-02-27T16:18:49.097Z,72.55
2023-02-27T16:21:18.807Z,70.68
2023-02-27T16:23:46.827Z,70.70
2023-02-27T16:26:38.927Z,60.00
2023-02-27T16:29:18.405Z,60.00
2023-02-27T16:31:55.008Z,54.83
2023-02-27T16:37:36.008Z,57.08
2023-02-27T16:40:12.989Z,55.15
2023-02-27T16:42:40.715Z,47.30
2023-02-27T16:45:11.157Z,51.47
2023-02-27T16:47:38.049Z,48.40
2023-02-27T16:50:06.885Z,49.88
2023-02-27T16:52:33.672Z,49.10
2023-02-27T16:55:00.575Z,50.38
2023-02-27T16:57:27.897Z,52.53
2023-02-27T16:59:54.762Z,51.55
2023-02-27T17:02:21.574Z,51.70
2023-02-27T17:04:50.062Z,52.97
2023-02-27T17:07:18.414Z,50.25
2023-02-27T17:09:46.352Z,50.55
2023-02-27T17:12:13.817Z,58.35
2023-02-27T17:14:40.660Z,50.78
2023-02-27T17:17:08.011Z,52.38
2023-02-27T17:19:35.089Z,58.45
2023-02-27T17:22:02.251Z,59.80
2023-02-27T17:24:29.499Z,52.83
2023-02-27T17:26:57.253Z,57.80
2023-02-27T17:29:25.465Z,60.42
2023-02-27T17:31:53.174Z,48.78
2023-02-27T17:34:20.128Z,53.85
2023-02-27T17:36:50.055Z,58.25
2023-02-27T17:39:18.377Z,69.80
2023-02-27T17:41:45.333Z,52.95
2023-02-27T17:44:12.496Z,52.75
2023-02-27T17:46:40.703Z,53.03
2023-02-27T17:49:07.922Z,54.10
2023-02-27T17:51:34.760Z,80.65
2023-02-27T17:54:03.801Z,56.60
2023-02-27T17:56:31.047Z,57.90
2023-02-27T17:58:58.417Z,57.65
2023-02-27T18:01:27.190Z,65.55
2023-02-27T18:03:55.523Z,68.57
2023-02-27T18:06:23.975Z,71.30
2023-02-27T18:08:50.989Z,59.00
2023-02-27T18:11:20.170Z,63.28
2023-02-27T18:13:47.580Z,60.42
2023-02-27T18:16:15.162Z,58.58
2023-02-27T18:18:43.512Z,58.90
2023-02-27T18:21:14.697Z,55.13
2023-02-27T18:23:42.446Z,58.15
2023-02-27T18:26:32.458Z,63.95
2023-02-27T18:29:02.614Z,64.78
2023-02-27T18:31:35.396Z,68.25
2023-02-27T18:34:02.340Z,61.60
2023-02-27T18:36:32.441Z,56.50
2023-02-27T18:39:00.237Z,54.38
2023-02-27T18:41:28.226Z,53.58
2023-02-27T18:43:55.551Z,52.78
2023-02-27T18:46:22.572Z,55.08
2023-02-27T18:48:49.853Z,54.47
2023-02-27T18:51:18.196Z,51.22
2023-02-27T18:53:48.141Z,58.13
2023-02-27T18:56:17.302Z,58.35
2023-02-27T18:58:44.591Z,56.95
2023-02-27T19:01:26.982Z,63.88
2023-02-27T19:04:00.467Z,59.40
2023-02-27T19:06:28.628Z,76.15
2023-02-27T19:08:55.947Z,71.00
2023-02-27T19:11:33.681Z,69.43
2023-02-27T19:14:02.854Z,70.18
2023-02-27T19:16:30.986Z,68.75
2023-02-27T19:18:59.530Z,73.57
2023-02-27T19:21:27.565Z,67.43
2023-02-27T19:23:55.464Z,64.15
2023-02-27T19:26:24.467Z,62.75
2023-02-27T19:28:54.283Z,57.80
2023-02-27T19:31:22.915Z,57.45
2023-02-27T19:33:50.463Z,55.85
2023-02-27T19:36:21.081Z,56.33
2023-02-27T19:38:48.650Z,53.65
2023-02-27T19:41:19.802Z,51.92
2023-02-27T19:43:47.897Z,56.53
2023-02-27T19:46:24.154Z,62.35
2023-02-27T19:48:52.797Z,55.97
2023-02-27T19:51:21.261Z,56.33
2023-02-27T19:53:51.351Z,53.33
2023-02-27T19:56:26.929Z,62.83
2023-02-27T19:58:54.555Z,62.45
2023-02-27T20:01:33.078Z,68.43
2023-02-27T20:04:01.924Z,67.80
2023-02-27T20:06:31.196Z,59.83
2023-02-27T20:08:59.087Z,67.25
2023-02-27T20:11:33.012Z,65.78
2023-02-27T20:14:00.608Z,63.25
2023-02-27T20:16:30.132Z,60.22
2023-02-27T20:18:57.370Z,61.42
2023-02-27T20:21:28.713Z,66.88
2023-02-27T20:23:56.491Z,69.85
2023-02-27T20:26:28.396Z,74.63
2023-02-27T20:28:57.472Z,75.60
2023-02-27T20:31:29.273Z,72.43
2023-02-27T20:33:57.463Z,71.40
2023-02-27T20:36:24.930Z,72.15
2023-02-27T20:38:51.979Z,68.28
2023-02-27T20:41:23.112Z,72.78
2023-02-27T20:43:50.311Z,74.30
2023-02-27T20:46:20.250Z,75.22
2023-02-27T20:48:47.621Z,73.68
2023-02-27T20:51:17.630Z,70.43
2023-02-27T20:53:47.480Z,74.95
2023-02-27T20:56:15.347Z,66.38
2023-02-27T20:58:42.334Z,70.88
2023-02-27T21:01:14.306Z,75.63
2023-02-27T21:03:43.031Z,74.47
2023-02-27T21:06:12.795Z,77.78
2023-02-27T21:08:42.393Z,77.03
2023-02-27T21:11:15.150Z,72.18
2023-02-27T21:13:42.377Z,77.80
2023-02-27T21:16:11.110Z,79.45
2023-02-27T21:18:38.347Z,83.40
2023-02-27T21:21:07.539Z,83.30
2023-02-27T21:23:41.125Z,93.50
2023-02-27T21:26:21.477Z,99.00
2023-02-27T21:29:01.137Z,97.28
2023-02-27T21:31:32.637Z,94.80
2023-02-27T21:34:01.343Z,92.90
2023-02-27T21:36:32.544Z,96.78
2023-02-27T21:39:01.201Z,101.22
2023-02-27T21:41:29.674Z,98.28
2023-02-27T21:44:05.080Z,97.53
2023-02-27T21:46:33.471Z,103.03
2023-02-27T21:49:01.294Z,95.05
2023-02-27T21:51:41.493Z,93.35
2023-02-27T21:54:11.186Z,92.22
2023-02-27T21:56:38.875Z,93.90
2023-02-27T21:59:06.046Z,99.43
2023-02-27T22:01:33.734Z,98.43
2023-02-27T22:04:02.052Z,97.30
2023-02-27T22:06:32.283Z,88.82
2023-02-27T22:09:01.842Z,94.68
2023-02-27T22:11:31.695Z,101.45
2023-02-27T22:13:58.592Z,97.90
2023-02-27T22:16:25.584Z,106.15
2023-02-27T22:18:53.555Z,105.95
2023-02-27T22:21:23.003Z,106.65
2023-02-27T22:23:50.263Z,106.53
2023-02-27T22:26:24.343Z,99.47
2023-02-27T22:28:52.346Z,92.15
2023-02-27T22:31:24.307Z,86.90
2023-02-27T22:33:54.217Z,94.50
2023-02-27T22:36:27.764Z,94.20
2023-02-27T22:38:55.003Z,93.75
2023-02-27T22:41:27.961Z,91.32
2023-02-27T22:43:55.458Z,97.55
2023-02-27T22:46:37.160Z,97.32
2023-02-27T22:49:12.781Z,98.40
2023-02-27T22:51:39.757Z,97.50
2023-02-27T22:54:07.694Z,94.63
2023-02-27T22:56:36.568Z,89.28
2023-02-27T22:59:04.816Z,83.85
2023-02-27T23:01:34.581Z,82.32
2023-02-27T23:04:07.684Z,81.47
2023-02-27T23:06:40.378Z,83.10
2023-02-27T23:09:10.937Z,82.35
2023-02-27T23:11:50.032Z,89.95
2023-02-27T23:14:17.412Z,85.18
2023-02-27T23:16:47.165Z,88.57
2023-02-27T23:19:16.307Z,93.15
2023-02-27T23:21:43.574Z,85.15
2023-02-27T23:24:15.702Z,86.90
2023-02-27T23:26:45.941Z,89.82
2023-02-27T23:29:13.384Z,87.60
2023-02-27T23:31:40.945Z,89.70
2023-02-27T23:34:08.173Z,83.22
2023-02-27T23:36:35.802Z,91.70
2023-02-27T23:39:04.324Z,87.60
2023-02-27T23:41:32.432Z,92.40
2023-02-27T23:44:17.548Z,93.70
2023-02-27T23:46:44.470Z,88.20
2023-02-27T23:49:11.779Z,83.22
2023-02-27T23:51:38.867Z,104.43
2023-02-27T23:54:05.775Z,89.35
2023-02-27T23:56:32.838Z,98.78
2023-02-27T23:59:02.921Z,92.78
